createdAt,value
2018-01-03T00:00:04.454Z,15.07
2018-01-03T00:01:04.410Z,17.16
2018-01-03T00:02:04.366Z,16.68
2018-01-03T00:03:04.341Z,12.41
2018-01-03T00:04:04.313Z,8.44
2018-01-03T00:05:04.242Z,8.72
2018-01-03T00:06:04.215Z,13.17
2018-01-03T00:07:04.156Z,19.05
2018-01-03T00:08:04.154Z,14.12
2018-01-03T00:09:04.080Z,12.32
2018-01-03T00:10:04.101Z,12.51
2018-01-03T00:11:03.989Z,19.24
2018-01-03T00:12:03.954Z,17.91
2018-01-03T00:13:03.917Z,16.78
2018-01-03T00:14:03.863Z,13.17
2018-01-03T00:15:03.835Z,9.76
2018-01-03T00:16:03.786Z,15.26
2018-01-03T00:17:03.753Z,11.37
2018-01-03T00:18:03.699Z,8.72
2018-01-03T00:19:03.655Z,12.60
2018-01-03T00:20:03.616Z,18.10
2018-01-03T00:21:03.572Z,14.88
2018-01-03T00:22:03.528Z,13.17
2018-01-03T00:23:03.488Z,12.89
2018-01-03T00:24:03.443Z,11.09
2018-01-03T00:25:03.402Z,7.68
2018-01-03T00:26:03.360Z,7.48
2018-01-03T00:27:03.322Z,10.24
2018-01-03T00:28:03.278Z,17.72
2018-01-03T00:29:03.235Z,13.36
2018-01-03T00:30:03.196Z,11.47
2018-01-03T00:31:03.154Z,17.91
2018-01-03T00:32:03.117Z,18.39
2018-01-03T00:33:03.069Z,17.06
2018-01-03T00:34:03.027Z,18.20
2018-01-03T00:35:02.988Z,20.38
2018-01-03T00:36:02.947Z,22.56
2018-01-03T00:37:02.903Z,23.03
2018-01-03T00:38:02.860Z,18.20
2018-01-03T00:39:02.821Z,13.46
2018-01-03T00:40:02.776Z,16.49
2018-01-03T00:41:02.736Z,16.20
2018-01-03T00:42:02.700Z,21.23
2018-01-03T00:43:02.651Z,20.38
2018-01-03T00:44:02.609Z,21.23
2018-01-03T00:45:02.567Z,21.14
2018-01-03T00:46:02.543Z,21.99
2018-01-03T00:47:02.484Z,19.34
2018-01-03T00:48:02.445Z,18.39
2018-01-03T00:49:02.406Z,22.56
2018-01-03T00:50:02.358Z,25.88
2018-01-03T00:51:02.325Z,26.82
2018-01-03T00:52:02.278Z,21.61
2018-01-03T00:53:02.233Z,23.41
2018-01-03T00:54:02.192Z,24.84
2018-01-03T00:55:02.151Z,20.76
2018-01-03T00:56:02.106Z,25.21
2018-01-03T00:57:02.071Z,24.07
2018-01-03T00:58:02.022Z,25.21
2018-01-03T00:59:01.983Z,22.18
2018-01-03T01:00:01.943Z,21.51
2018-01-03T01:01:01.900Z,19.05
2018-01-03T01:02:01.856Z,20.47
2018-01-03T01:03:01.813Z,19.81
2018-01-03T01:04:01.781Z,23.88
2018-01-03T01:05:01.761Z,24.84
2018-01-03T01:06:01.704Z,24.93
2018-01-03T01:07:01.659Z,25.21
2018-01-03T01:08:01.607Z,25.59
2018-01-03T01:09:01.564Z,25.49
2018-01-03T01:10:01.523Z,24.82
2018-01-03T01:11:01.480Z,23.98
2018-01-03T01:12:01.436Z,23.88
2018-01-03T01:13:01.394Z,22.46
2018-01-03T01:14:01.358Z,22.46
2018-01-03T01:15:01.312Z,22.94
2018-01-03T01:16:01.277Z,25.68
2018-01-03T01:17:01.227Z,28.06
2018-01-03T01:18:01.185Z,29.57
2018-01-03T01:19:01.147Z,24.74
2018-01-03T01:20:01.102Z,25.49
2018-01-03T01:21:01.060Z,23.69
2018-01-03T01:22:01.026Z,25.49
2018-01-03T01:23:00.978Z,25.31
2018-01-03T01:24:00.934Z,25.12
2018-01-03T01:25:00.900Z,27.01
2018-01-03T01:26:00.851Z,29.95
2018-01-03T01:27:00.926Z,30.99
2018-01-03T01:28:00.771Z,29.57
2018-01-03T01:29:00.759Z,30.51
2018-01-03T01:30:00.764Z,26.54
2018-01-03T01:31:00.644Z,28.61
2018-01-03T01:32:00.602Z,29.67
2018-01-03T01:33:00.558Z,30.05
2018-01-03T01:34:00.526Z,30.71
2018-01-03T01:35:00.472Z,30.62
2018-01-03T01:36:00.441Z,29.29
2018-01-03T01:37:00.389Z,27.49
2018-01-03T01:38:00.363Z,25.59
2018-01-03T01:39:00.314Z,24.74
2018-01-03T01:40:00.272Z,28.34
2018-01-03T01:41:00.222Z,24.07
2018-01-03T01:42:00.181Z,27.01
2018-01-03T01:43:00.137Z,33.37
2018-01-03T01:44:00.102Z,30.80
2018-01-03T01:45:00.065Z,32.70
2018-01-03T01:46:00.025Z,29.57
2018-01-03T01:46:59.971Z,27.01
2018-01-03T01:47:59.937Z,28.15
2018-01-03T01:48:59.917Z,30.05
2018-01-03T01:49:59.845Z,28.53
2018-01-03T01:50:59.803Z,28.81
2018-01-03T01:51:59.763Z,30.43
2018-01-03T01:52:59.719Z,30.62
2018-01-03T01:53:59.680Z,31.66
2018-01-03T01:54:59.638Z,29.86
2018-01-03T01:55:59.594Z,30.62
2018-01-03T01:56:59.553Z,30.99
2018-01-03T01:57:59.506Z,28.15
2018-01-03T01:58:59.469Z,31.18
2018-01-03T01:59:59.425Z,31.66
2018-01-03T02:00:59.393Z,29.76
2018-01-03T02:01:59.351Z,31.09
2018-01-03T02:02:59.308Z,31.56
2018-01-03T02:03:59.257Z,30.99
2018-01-03T02:04:59.221Z,30.90
2018-01-03T02:05:59.177Z,30.79
2018-01-03T02:06:59.155Z,30.62
2018-01-03T02:07:59.091Z,31.28
2018-01-03T02:08:59.060Z,30.80
2018-01-03T02:09:59.014Z,30.80
2018-01-03T02:10:59.008Z,32.70
2018-01-03T02:11:58.934Z,33.46
2018-01-03T02:12:58.883Z,33.17
2018-01-03T02:13:58.849Z,30.62
2018-01-03T02:14:58.815Z,31.85
2018-01-03T02:15:58.768Z,32.98
2018-01-03T02:16:58.771Z,33.56
2018-01-03T02:17:58.728Z,32.70
2018-01-03T02:18:58.629Z,31.28
2018-01-03T02:19:58.617Z,31.75
2018-01-03T02:20:58.569Z,32.14
2018-01-03T02:21:58.561Z,33.56
2018-01-03T02:22:58.478Z,32.42
2018-01-03T02:23:58.420Z,30.52
2018-01-03T02:24:58.387Z,36.97
2018-01-03T02:25:58.339Z,36.11
2018-01-03T02:26:58.307Z,35.26
2018-01-03T02:27:58.255Z,35.36
2018-01-03T02:28:58.217Z,38.01
2018-01-03T02:29:58.187Z,36.49
2018-01-03T02:30:58.139Z,35.83
2018-01-03T02:31:58.096Z,34.59
2018-01-03T02:32:58.078Z,34.98
2018-01-03T02:33:58.007Z,37.82
2018-01-03T02:34:57.958Z,34.98
2018-01-03T02:35:57.924Z,34.41
2018-01-03T02:36:57.879Z,40.57
2018-01-03T02:37:57.840Z,38.48
2018-01-03T02:38:57.804Z,39.24
2018-01-03T02:39:57.752Z,37.06
2018-01-03T02:40:57.715Z,35.74
2018-01-03T02:41:57.676Z,38.58
2018-01-03T02:42:57.634Z,38.29
2018-01-03T02:43:57.586Z,34.31
2018-01-03T02:44:57.548Z,37.63
2018-01-03T02:45:57.503Z,39.62
2018-01-03T02:46:57.472Z,37.73
2018-01-03T02:47:57.423Z,35.74
2018-01-03T02:48:57.388Z,35.07
2018-01-03T02:49:57.338Z,32.79
2018-01-03T02:50:57.324Z,38.58
2018-01-03T02:51:57.257Z,37.16
2018-01-03T02:52:57.212Z,38.48
2018-01-03T02:53:57.170Z,39.62
2018-01-03T02:54:57.129Z,39.24
2018-01-03T02:55:57.092Z,39.15
2018-01-03T02:56:57.062Z,42.94
2018-01-03T02:57:57.004Z,41.24
2018-01-03T02:58:56.964Z,41.24
2018-01-03T02:59:56.919Z,39.62
2018-01-03T03:00:56.877Z,42.75
2018-01-03T03:01:56.838Z,43.98
2018-01-03T03:02:56.796Z,41.80
2018-01-03T03:03:56.754Z,42.08
2018-01-03T03:04:56.715Z,43.13
2018-01-03T03:05:56.676Z,41.80
2018-01-03T03:06:56.631Z,43.88
2018-01-03T03:07:56.588Z,43.32
2018-01-03T03:08:56.552Z,43.32
2018-01-03T03:09:56.506Z,44.46
2018-01-03T03:10:56.475Z,41.42
2018-01-03T03:11:56.424Z,44.17
2018-01-03T03:12:56.384Z,44.74
2018-01-03T03:13:56.337Z,42.27
2018-01-03T03:14:56.306Z,44.93
2018-01-03T03:15:56.256Z,43.88
2018-01-03T03:16:56.215Z,44.36
2018-01-03T03:17:56.186Z,45.14
2018-01-03T03:18:56.144Z,45.90
2018-01-03T03:19:56.100Z,45.24
2018-01-03T03:20:56.049Z,47.04
2018-01-03T03:21:56.009Z,46.00
2018-01-03T03:22:55.968Z,46.85
2018-01-03T03:23:55.925Z,47.61
2018-01-03T03:24:55.883Z,48.27
2018-01-03T03:25:55.848Z,46.09
2018-01-03T03:26:55.805Z,46.09
2018-01-03T03:27:55.757Z,47.32
2018-01-03T03:28:55.724Z,46.56
2018-01-03T03:29:55.679Z,46.37
2018-01-03T03:30:55.638Z,41.54
2018-01-03T03:31:55.593Z,45.05
2018-01-03T03:32:55.550Z,43.91
2018-01-03T03:33:55.536Z,44.76
2018-01-03T03:34:55.474Z,44.20
2018-01-03T03:35:55.432Z,48.27
2018-01-03T03:36:55.388Z,47.71
2018-01-03T03:37:55.358Z,45.71
2018-01-03T03:38:55.312Z,47.23
2018-01-03T03:39:55.267Z,49.32
2018-01-03T03:40:55.224Z,49.13
2018-01-03T03:41:55.181Z,48.65
2018-01-03T03:42:55.148Z,47.52
2018-01-03T03:43:55.104Z,50.36
2018-01-03T03:44:55.060Z,48.27
2018-01-03T03:45:55.022Z,51.31
2018-01-03T03:46:54.974Z,50.83
2018-01-03T03:47:54.935Z,49.69
2018-01-03T03:48:54.894Z,50.74
2018-01-03T03:50:15.846Z,52.92
2018-01-03T03:50:54.816Z,50.26
2018-01-03T03:51:54.769Z,51.68
2018-01-03T03:52:54.728Z,50.36
2018-01-03T03:53:54.690Z,51.40
2018-01-03T03:54:54.655Z,53.77
2018-01-03T03:55:54.608Z,52.45
2018-01-03T03:56:54.562Z,49.98
2018-01-03T03:57:54.529Z,52.92
2018-01-03T03:58:54.480Z,54.53
2018-01-03T03:59:54.444Z,53.30
2018-01-03T04:00:54.402Z,55.10
2018-01-03T04:01:54.360Z,53.68
2018-01-03T04:02:54.316Z,54.25
2018-01-03T04:03:54.274Z,56.34
2018-01-03T04:04:54.234Z,55.10
2018-01-03T04:05:54.193Z,55.86
2018-01-03T04:06:54.150Z,55.19
2018-01-03T04:07:54.117Z,56.05
2018-01-03T04:08:54.070Z,55.57
2018-01-03T04:09:54.030Z,56.24
2018-01-03T04:10:53.997Z,56.52
2018-01-03T04:11:53.946Z,55.29
2018-01-03T04:12:53.915Z,54.37
2018-01-03T04:13:53.878Z,53.20
2018-01-03T04:14:53.824Z,56.62
2018-01-03T04:15:53.782Z,56.15
2018-01-03T04:16:53.742Z,52.06
2018-01-03T04:17:53.701Z,54.15
2018-01-03T04:18:53.667Z,51.87
2018-01-03T04:19:53.619Z,49.79
2018-01-03T04:20:53.578Z,48.56
2018-01-03T04:21:53.539Z,48.27
2018-01-03T04:22:53.524Z,47.42
2018-01-03T04:23:53.452Z,45.71
2018-01-03T04:24:53.435Z,45.05
2018-01-03T04:25:53.380Z,39.92
2018-01-03T04:26:53.331Z,41.63
2018-01-03T04:27:53.296Z,39.64
2018-01-03T04:28:53.248Z,38.22
2018-01-03T04:29:53.209Z,37.65
2018-01-03T04:30:53.167Z,30.44
2018-01-03T04:31:53.123Z,32.62
2018-01-03T04:32:53.086Z,31.29
2018-01-03T04:33:53.047Z,27.22
2018-01-03T04:34:53.004Z,30.25
2018-01-03T04:35:52.969Z,28.26
2018-01-03T04:36:52.925Z,33.67
2018-01-03T04:37:52.879Z,27.31
2018-01-03T04:38:52.841Z,27.69
2018-01-03T04:39:52.803Z,31.20
2018-01-03T04:40:52.794Z,32.71
2018-01-03T04:41:52.721Z,24.85
2018-01-03T04:42:52.683Z,25.42
2018-01-03T04:43:52.644Z,25.70
2018-01-03T04:44:52.603Z,24.94
2018-01-03T04:45:52.568Z,26.75
2018-01-03T04:46:52.513Z,22.09
2018-01-03T04:47:52.469Z,15.93
2018-01-03T04:48:52.427Z,21.24
2018-01-03T04:49:52.402Z,17.92
2018-01-03T04:50:52.350Z,21.91
2018-01-03T04:51:52.302Z,18.02
2018-01-03T04:52:52.265Z,19.34
2018-01-03T04:53:52.221Z,22.28
2018-01-03T04:54:52.184Z,20.48
2018-01-03T04:55:52.143Z,11.29
2018-01-03T04:56:52.126Z,12.04
2018-01-03T04:57:52.080Z,15.45
2018-01-03T04:58:52.043Z,12.80
2018-01-03T04:59:51.978Z,9.10
2018-01-03T05:00:51.948Z,13.37
2018-01-03T05:01:51.900Z,8.82
2018-01-03T05:02:51.861Z,11.47
2018-01-03T05:03:51.808Z,5.88
2018-01-03T05:04:51.771Z,9.95
2018-01-03T05:05:51.728Z,1.70
2018-01-03T05:06:51.689Z,2.18
2018-01-03T05:07:51.645Z,0.09
2018-01-03T05:08:51.606Z,0.66
2018-01-03T05:09:51.568Z,3.98
2018-01-03T05:10:51.526Z,0.00
2018-01-03T05:11:51.495Z,0.00
2018-01-03T05:12:51.443Z,0.00
2018-01-03T05:13:51.401Z,0.00
2018-01-03T05:14:51.363Z,0.28
2018-01-03T05:15:51.316Z,0.00
2018-01-03T05:16:51.276Z,0.00
2018-01-03T05:17:51.246Z,0.00
2018-01-03T05:18:51.194Z,0.00
2018-01-03T05:19:51.158Z,0.00
2018-01-03T05:20:51.108Z,0.00
2018-01-03T05:21:51.069Z,0.00
2018-01-03T05:22:51.027Z,0.00
2018-01-03T05:23:50.993Z,0.00
2018-01-03T05:24:50.943Z,0.00
2018-01-03T05:25:50.912Z,0.00
2018-01-03T05:26:50.866Z,0.00
2018-01-03T05:27:50.826Z,0.00
2018-01-03T05:28:50.784Z,0.00
2018-01-03T05:29:50.746Z,0.00
2018-01-03T05:30:50.696Z,0.00
2018-01-03T05:31:50.661Z,0.00
2018-01-03T05:32:50.613Z,0.00
2018-01-03T05:33:50.571Z,0.00
2018-01-03T05:34:50.534Z,0.00
2018-01-03T05:35:50.485Z,0.00
2018-01-03T05:36:50.447Z,0.00
2018-01-03T05:37:50.404Z,0.00
2018-01-03T05:38:50.374Z,0.00
2018-01-03T05:39:50.324Z,0.00
2018-01-03T05:40:50.281Z,0.00
2018-01-03T05:41:50.246Z,0.00
2018-01-03T05:42:50.201Z,0.00
2018-01-03T05:43:50.158Z,0.00
2018-01-03T05:44:50.112Z,0.00
2018-01-03T05:45:50.074Z,0.00
2018-01-03T05:46:50.032Z,0.00
2018-01-03T05:47:49.994Z,0.00
2018-01-03T05:48:49.949Z,0.00
2018-01-03T05:49:49.904Z,0.00
2018-01-03T05:50:49.866Z,0.00
2018-01-03T05:51:49.821Z,0.00
2018-01-03T05:52:49.777Z,0.00
2018-01-03T05:53:49.739Z,0.00
2018-01-03T05:54:49.722Z,0.00
2018-01-03T05:55:49.655Z,0.00
2018-01-03T05:56:49.616Z,0.00
2018-01-03T05:57:49.575Z,0.00
2018-01-03T05:58:49.530Z,0.00
2018-01-03T05:59:49.493Z,0.00
2018-01-03T06:00:49.451Z,0.00
2018-01-03T06:01:49.408Z,0.00
2018-01-03T06:02:49.364Z,0.00
2018-01-03T06:03:49.319Z,0.00
2018-01-03T06:04:49.280Z,0.00
2018-01-03T06:05:49.243Z,0.00
2018-01-03T06:06:49.196Z,0.00
2018-01-03T06:07:49.156Z,0.00
2018-01-03T06:08:49.114Z,0.00
2018-01-03T06:09:49.071Z,0.00
2018-01-03T06:10:49.030Z,0.00
2018-01-03T06:11:48.993Z,0.00
2018-01-03T06:12:48.948Z,0.00
2018-01-03T06:13:48.904Z,0.00
2018-01-03T06:14:48.865Z,0.00
2018-01-03T06:15:48.820Z,0.00
2018-01-03T06:16:48.785Z,0.00
2018-01-03T06:17:48.743Z,0.00
2018-01-03T06:18:48.697Z,0.00
2018-01-03T06:19:48.656Z,0.00
2018-01-03T06:20:48.613Z,0.00
2018-01-03T06:21:48.571Z,0.00
2018-01-03T06:22:48.537Z,0.00
2018-01-03T06:23:48.487Z,0.00
2018-01-03T06:24:48.448Z,0.00
2018-01-03T06:25:48.413Z,0.00
2018-01-03T06:26:48.362Z,0.00
2018-01-03T06:27:48.330Z,0.00
2018-01-03T06:28:48.284Z,0.00
2018-01-03T06:29:48.237Z,0.00
2018-01-03T06:30:48.198Z,0.00
2018-01-03T06:31:48.164Z,0.00
2018-01-03T06:32:48.125Z,0.00
2018-01-03T06:33:48.075Z,0.00
2018-01-03T06:34:48.036Z,0.00
2018-01-03T06:35:47.994Z,0.00
2018-01-03T06:36:47.952Z,0.00
2018-01-03T06:37:47.905Z,0.00
2018-01-03T06:38:47.865Z,0.00
2018-01-03T06:39:47.824Z,0.00
2018-01-03T06:40:47.799Z,0.00
2018-01-03T06:41:47.786Z,0.00
2018-01-03T06:42:47.716Z,0.00
2018-01-03T06:43:47.655Z,0.00
2018-01-03T06:44:47.614Z,0.00
2018-01-03T06:45:47.578Z,0.00
2018-01-03T06:46:47.537Z,0.00
2018-01-03T06:47:47.495Z,0.00
2018-01-03T06:48:47.453Z,0.00
2018-01-03T06:49:47.451Z,0.00
2018-01-03T06:50:47.370Z,0.00
2018-01-03T06:51:47.416Z,0.00
2018-01-03T06:52:47.290Z,0.00
2018-01-03T06:53:47.240Z,0.00
2018-01-03T06:54:47.198Z,0.00
2018-01-03T06:55:47.156Z,0.00
2018-01-03T06:56:47.111Z,0.00
2018-01-03T06:57:47.068Z,0.00
2018-01-03T06:58:47.035Z,0.00
2018-01-03T06:59:47.009Z,0.00
2018-01-03T07:00:46.949Z,0.00
2018-01-03T07:01:46.914Z,0.00
2018-01-03T07:02:46.925Z,0.00
2018-01-03T07:03:46.825Z,0.00
2018-01-03T07:04:46.776Z,0.00
2018-01-03T07:05:46.758Z,0.00
2018-01-03T07:06:46.701Z,0.00
2018-01-03T07:07:46.651Z,0.00
2018-01-03T07:08:46.618Z,0.00
2018-01-03T07:09:46.571Z,0.00
2018-01-03T07:10:46.536Z,0.00
2018-01-03T07:11:46.490Z,0.00
2018-01-03T07:12:46.443Z,0.00
2018-01-03T07:13:46.402Z,0.00
2018-01-03T07:14:46.362Z,0.00
2018-01-03T07:15:46.322Z,0.00
2018-01-03T07:16:46.281Z,0.00
2018-01-03T07:17:46.238Z,0.00
2018-01-03T07:18:46.203Z,0.00
2018-01-03T07:19:46.159Z,0.00
2018-01-03T07:20:46.111Z,0.00
2018-01-03T07:21:46.071Z,0.00
2018-01-03T07:22:46.026Z,0.00
2018-01-03T07:23:45.987Z,0.00
2018-01-03T07:24:45.992Z,0.00
2018-01-03T07:25:45.914Z,0.00
2018-01-03T07:26:45.865Z,0.00
2018-01-03T07:27:45.879Z,0.00
2018-01-03T07:28:45.786Z,0.00
2018-01-03T07:29:45.742Z,0.00
2018-01-03T07:30:45.700Z,0.00
2018-01-03T07:31:45.651Z,0.00
2018-01-03T07:32:45.637Z,0.00
2018-01-03T07:33:45.583Z,0.00
2018-01-03T07:34:45.532Z,0.00
2018-01-03T07:35:45.494Z,0.00
2018-01-03T07:36:45.442Z,0.00
2018-01-03T07:37:45.429Z,0.00
2018-01-03T07:38:45.363Z,0.00
2018-01-03T07:39:45.340Z,0.00
2018-01-03T07:40:45.336Z,0.00
2018-01-03T07:41:45.237Z,0.00
2018-01-03T07:42:45.203Z,0.00
2018-01-03T07:43:45.158Z,0.00
2018-01-03T07:44:45.112Z,0.00
2018-01-03T07:45:45.069Z,0.00
2018-01-03T07:46:45.026Z,0.00
2018-01-03T07:47:44.984Z,0.00
2018-01-03T07:48:44.942Z,0.00
2018-01-03T07:49:44.900Z,0.00
2018-01-03T07:50:44.858Z,0.00
2018-01-03T07:51:44.819Z,0.00
2018-01-03T07:52:44.779Z,0.00
2018-01-03T07:53:44.739Z,0.00
2018-01-03T07:54:44.698Z,0.00
2018-01-03T07:55:44.651Z,0.00
2018-01-03T07:56:44.606Z,0.00
2018-01-03T07:57:44.569Z,0.00
2018-01-03T07:58:44.535Z,0.00
2018-01-03T07:59:44.499Z,0.00
2018-01-03T08:00:44.441Z,0.00
2018-01-03T08:01:44.407Z,0.00
2018-01-03T08:02:44.359Z,0.00
2018-01-03T08:03:44.320Z,0.00
2018-01-03T08:04:44.279Z,0.00
2018-01-03T08:05:44.240Z,0.00
2018-01-03T08:06:44.212Z,0.00
2018-01-03T08:07:44.153Z,0.00
2018-01-03T08:08:44.116Z,0.00
2018-01-03T08:09:44.073Z,0.00
2018-01-03T08:10:44.025Z,0.00
2018-01-03T08:11:43.988Z,0.00
2018-01-03T08:12:43.945Z,0.00
2018-01-03T08:13:43.901Z,0.00
2018-01-03T08:14:43.861Z,0.00
2018-01-03T08:15:43.821Z,0.00
2018-01-03T08:16:43.778Z,0.00
2018-01-03T08:17:43.739Z,0.00
2018-01-03T08:18:43.705Z,0.00
2018-01-03T08:19:43.660Z,0.00
2018-01-03T08:20:43.609Z,0.00
2018-01-03T08:21:43.570Z,0.00
2018-01-03T08:22:43.532Z,0.00
2018-01-03T08:23:43.487Z,0.00
2018-01-03T08:24:43.459Z,0.00
2018-01-03T08:25:43.406Z,0.00
2018-01-03T08:26:43.372Z,0.00
2018-01-03T08:27:43.320Z,0.00
2018-01-03T08:28:43.295Z,0.00
2018-01-03T08:29:43.240Z,0.00
2018-01-03T08:30:43.248Z,0.00
2018-01-03T08:31:43.153Z,0.00
2018-01-03T08:32:43.126Z,0.00
2018-01-03T08:33:43.085Z,0.00
2018-01-03T08:34:43.033Z,0.00
2018-01-03T08:35:42.992Z,0.00
2018-01-03T08:36:43.008Z,0.00
2018-01-03T08:37:42.909Z,0.00
2018-01-03T08:38:42.871Z,0.00
2018-01-03T08:39:42.829Z,0.00
2018-01-03T08:40:42.785Z,0.00
2018-01-03T08:41:42.742Z,0.00
2018-01-03T08:42:42.778Z,0.00
2018-01-03T08:43:42.656Z,0.00
2018-01-03T08:44:42.617Z,0.00
2018-01-03T08:45:42.576Z,0.00
2018-01-03T08:46:42.535Z,0.00
2018-01-03T08:47:42.502Z,0.00
2018-01-03T08:48:42.480Z,0.00
2018-01-03T08:49:42.442Z,0.00
2018-01-03T08:50:42.381Z,0.00
2018-01-03T08:51:42.330Z,0.00
2018-01-03T08:52:42.286Z,0.00
2018-01-03T08:53:42.247Z,0.00
2018-01-03T08:54:42.284Z,0.00
2018-01-03T08:55:42.166Z,0.00
2018-01-03T08:56:42.122Z,0.00
2018-01-03T08:57:42.083Z,0.00
2018-01-03T08:58:42.038Z,0.00
2018-01-03T08:59:42.007Z,0.00
2018-01-03T09:00:41.957Z,0.00
2018-01-03T09:01:41.918Z,0.00
2018-01-03T09:02:41.887Z,0.00
2018-01-03T09:03:41.832Z,0.00
2018-01-03T09:05:02.788Z,0.00
2018-01-03T09:05:41.753Z,0.00
2018-01-03T09:06:41.710Z,0.00
2018-01-03T09:07:41.675Z,0.00
2018-01-03T09:08:41.625Z,0.00
2018-01-03T09:09:41.585Z,0.00
2018-01-03T09:10:41.557Z,0.00
2018-01-03T09:11:41.505Z,0.00
2018-01-03T09:12:41.463Z,0.00
2018-01-03T09:13:41.422Z,0.00
2018-01-03T09:14:41.416Z,0.00
2018-01-03T09:15:41.354Z,0.00
2018-01-03T09:16:41.302Z,0.00
2018-01-03T09:17:42.102Z,0.00
2018-01-03T09:18:41.220Z,0.00
2018-01-03T09:19:41.179Z,0.00
2018-01-03T09:20:41.134Z,0.00
2018-01-03T09:21:41.095Z,0.00
2018-01-03T09:22:41.056Z,0.00
2018-01-03T09:23:41.030Z,0.00
2018-01-03T09:24:40.973Z,0.00
2018-01-03T09:25:40.934Z,0.00
2018-01-03T09:26:40.890Z,0.00
2018-01-03T09:27:40.850Z,0.00
2018-01-03T09:28:40.809Z,0.00
2018-01-03T09:29:40.774Z,0.00
2018-01-03T09:30:40.737Z,0.00
2018-01-03T09:31:40.690Z,0.00
2018-01-03T09:32:40.647Z,0.00
2018-01-03T09:33:40.607Z,0.00
2018-01-03T09:34:40.575Z,0.00
2018-01-03T09:35:40.524Z,0.00
2018-01-03T09:36:40.493Z,0.00
2018-01-03T09:37:40.441Z,0.00
2018-01-03T09:38:40.400Z,0.00
2018-01-03T09:39:40.360Z,0.00
2018-01-03T09:40:40.320Z,0.00
2018-01-03T09:41:40.280Z,0.00
2018-01-03T09:42:40.240Z,0.00
2018-01-03T09:43:40.215Z,0.00
2018-01-03T09:44:40.158Z,0.00
2018-01-03T09:45:40.116Z,0.00
2018-01-03T09:46:40.078Z,0.00
2018-01-03T09:47:40.038Z,0.00
2018-01-03T09:48:39.998Z,0.00
2018-01-03T09:49:39.957Z,0.00
2018-01-03T09:50:39.923Z,0.00
2018-01-03T09:51:39.875Z,0.00
2018-01-03T09:52:39.834Z,0.00
2018-01-03T09:53:39.794Z,0.00
2018-01-03T09:54:39.760Z,0.00
2018-01-03T09:55:39.713Z,0.00
2018-01-03T09:56:39.691Z,0.00
2018-01-03T09:57:39.644Z,0.00
2018-01-03T09:58:39.590Z,0.00
2018-01-03T09:59:39.552Z,0.00
2018-01-03T10:00:39.512Z,0.00
2018-01-03T10:01:39.473Z,0.00
2018-01-03T10:02:39.431Z,0.00
2018-01-03T10:03:39.389Z,0.00
2018-01-03T10:04:39.350Z,0.00
2018-01-03T10:05:39.308Z,0.00
2018-01-03T10:06:39.268Z,0.00
2018-01-03T10:07:39.225Z,0.00
2018-01-03T10:08:39.187Z,0.00
2018-01-03T10:09:39.150Z,0.00
2018-01-03T10:10:39.108Z,0.00
2018-01-03T10:11:39.065Z,0.00
2018-01-03T10:12:39.025Z,0.00
2018-01-03T10:13:38.987Z,0.00
2018-01-03T10:16:10.524Z,0.00
2018-01-03T10:17:10.448Z,0.00
2018-01-03T10:19:03.270Z,0.00
2018-01-03T10:20:03.217Z,0.00
2018-01-03T10:21:56.042Z,0.00
2018-01-03T10:22:56.596Z,0.00
2018-01-03T10:24:48.805Z,0.00
2018-01-03T10:25:48.758Z,0.00
2018-01-03T10:27:41.594Z,0.00
2018-01-03T10:28:41.539Z,0.00
2018-01-03T10:30:34.352Z,0.00
2018-01-03T10:31:34.309Z,0.00
2018-01-03T10:33:27.153Z,0.00
2018-01-03T10:34:27.095Z,0.00
2018-01-03T10:36:19.904Z,0.00
2018-01-03T10:37:19.857Z,0.00
2018-01-03T10:39:12.776Z,0.00
2018-01-03T10:40:12.623Z,0.00
2018-01-03T10:41:12.579Z,0.00
2018-01-03T10:42:12.541Z,0.00
2018-01-03T10:43:12.504Z,0.00
2018-01-03T10:44:12.468Z,0.00
2018-01-03T10:45:12.425Z,0.00
2018-01-03T10:46:12.390Z,0.00
2018-01-03T10:47:12.347Z,0.00
2018-01-03T10:48:12.300Z,0.00
2018-01-03T10:49:12.282Z,0.00
2018-01-03T10:50:12.223Z,0.00
2018-01-03T10:51:12.194Z,0.00
2018-01-03T10:52:12.145Z,0.00
2018-01-03T10:53:12.102Z,0.00
2018-01-03T10:54:12.062Z,0.00
2018-01-03T10:55:12.031Z,0.00
2018-01-03T10:56:11.985Z,0.00
2018-01-03T10:57:11.942Z,0.00
2018-01-03T10:58:11.904Z,0.00
2018-01-03T10:59:11.866Z,0.00
2018-01-03T11:00:11.834Z,0.00
2018-01-03T11:01:11.786Z,0.00
2018-01-03T11:02:11.744Z,0.00
2018-01-03T11:03:11.706Z,0.00
2018-01-03T11:04:11.674Z,0.00
2018-01-03T11:05:11.635Z,0.00
2018-01-03T11:06:11.590Z,0.00
2018-01-03T11:07:11.547Z,0.00
2018-01-03T11:08:11.517Z,0.00
2018-01-03T11:09:11.468Z,0.00
2018-01-03T11:10:11.431Z,0.00
2018-01-03T11:11:11.394Z,0.00
2018-01-03T11:12:11.352Z,0.00
2018-01-03T11:13:11.320Z,0.00
2018-01-03T11:14:11.274Z,0.00
2018-01-03T11:15:11.234Z,0.00
2018-01-03T11:16:11.193Z,0.00
2018-01-03T11:17:11.155Z,0.00
2018-01-03T11:18:11.115Z,0.00
2018-01-03T11:19:11.075Z,0.00
2018-01-03T11:20:11.041Z,0.00
2018-01-03T11:21:11.002Z,0.00
2018-01-03T11:22:10.958Z,0.00
2018-01-03T11:23:10.929Z,0.00
2018-01-03T11:24:10.878Z,0.00
2018-01-03T11:25:10.837Z,0.00
2018-01-03T11:26:10.798Z,0.00
2018-01-03T11:27:10.759Z,0.00
2018-01-03T11:28:10.730Z,0.00
2018-01-03T11:29:10.683Z,0.00
2018-01-03T11:30:10.645Z,0.00
2018-01-03T11:31:10.611Z,0.00
2018-01-03T11:32:10.566Z,0.00
2018-01-03T11:33:10.533Z,0.00
2018-01-03T11:34:10.485Z,0.00
2018-01-03T11:35:10.454Z,0.00
2018-01-03T11:36:10.408Z,0.00
2018-01-03T11:37:10.368Z,0.00
2018-01-03T11:38:10.338Z,0.00
2018-01-03T11:39:10.296Z,0.00
2018-01-03T11:40:10.259Z,0.00
2018-01-03T11:41:10.213Z,0.00
2018-01-03T11:42:10.182Z,0.00
2018-01-03T11:43:10.140Z,0.00
2018-01-03T11:44:10.095Z,0.00
2018-01-03T11:45:10.055Z,0.00
2018-01-03T11:46:10.016Z,0.00
2018-01-03T11:47:09.979Z,0.00
2018-01-03T11:48:09.938Z,0.00
2018-01-03T11:49:09.900Z,0.00
2018-01-03T11:50:09.863Z,0.00
2018-01-03T11:51:09.823Z,0.00
2018-01-03T11:52:09.785Z,0.00
2018-01-03T11:53:09.745Z,0.00
2018-01-03T11:54:09.712Z,0.00
2018-01-03T11:55:09.667Z,0.00
2018-01-03T11:56:09.627Z,0.00
2018-01-03T11:57:09.608Z,0.00
2018-01-03T11:58:09.552Z,0.00
2018-01-03T11:59:09.513Z,0.00
2018-01-03T12:00:09.475Z,0.00
2018-01-03T12:01:09.439Z,0.00
2018-01-03T12:02:09.397Z,0.00
2018-01-03T12:03:09.358Z,0.00
2018-01-03T12:04:09.316Z,0.00
2018-01-03T12:05:09.279Z,0.00
2018-01-03T12:06:09.243Z,0.00
2018-01-03T12:07:09.199Z,0.00
2018-01-03T12:08:09.168Z,0.00
2018-01-03T12:09:09.142Z,0.00
2018-01-03T12:10:09.095Z,0.00
2018-01-03T12:11:09.042Z,0.00
2018-01-03T12:12:09.003Z,0.00
2018-01-03T12:13:08.974Z,0.00
2018-01-03T12:14:08.935Z,0.00
2018-01-03T12:15:08.886Z,0.00
2018-01-03T12:16:08.848Z,0.00
2018-01-03T12:17:08.809Z,0.00
2018-01-03T12:18:08.770Z,0.00
2018-01-03T12:19:08.732Z,0.00
2018-01-03T12:20:08.689Z,0.00
2018-01-03T12:21:08.647Z,0.00
2018-01-03T12:22:08.608Z,0.00
2018-01-03T12:23:08.589Z,0.00
2018-01-03T12:24:08.534Z,0.00
2018-01-03T12:25:08.490Z,0.00
2018-01-03T12:26:08.451Z,0.00
2018-01-03T12:27:08.414Z,0.00
2018-01-03T12:28:08.369Z,0.00
2018-01-03T12:29:08.330Z,0.00
2018-01-03T12:30:08.290Z,0.00
2018-01-03T12:31:08.250Z,0.00
2018-01-03T12:32:08.209Z,0.00
2018-01-03T12:33:08.169Z,0.00
2018-01-03T12:34:08.136Z,0.00
2018-01-03T12:35:08.102Z,0.00
2018-01-03T12:36:29.073Z,0.00
2018-01-03T12:37:18.774Z,0.00
2018-01-03T12:38:07.969Z,0.00
2018-01-03T12:39:07.931Z,1.14
2018-01-03T12:40:07.937Z,0.00
2018-01-03T12:41:07.858Z,3.51
2018-01-03T12:42:07.812Z,0.19
2018-01-03T12:43:07.787Z,5.13
2018-01-03T12:44:07.728Z,3.13
2018-01-03T12:45:07.689Z,0.00
2018-01-03T12:46:07.657Z,0.57
2018-01-03T12:47:07.617Z,13.10
2018-01-03T12:48:07.573Z,8.36
2018-01-03T12:49:07.532Z,16.62
2018-01-03T12:50:07.492Z,14.73
2018-01-03T12:51:07.455Z,18.24
2018-01-03T12:52:07.415Z,18.15
2018-01-03T12:53:07.371Z,25.27
2018-01-03T12:54:07.332Z,16.72
2018-01-03T12:55:07.291Z,18.05
2018-01-03T12:56:07.250Z,21.76
2018-01-03T12:57:07.212Z,25.37
2018-01-03T12:58:07.177Z,24.13
2018-01-03T12:59:07.131Z,16.63
2018-01-03T13:00:07.093Z,19.76
2018-01-03T13:01:07.080Z,37.35
2018-01-03T13:02:07.011Z,24.52
2018-01-03T13:03:06.976Z,30.22
2018-01-03T13:04:06.941Z,23.94
2018-01-03T13:05:06.904Z,37.63
2018-01-03T13:06:06.868Z,31.74
2018-01-03T13:07:06.810Z,25.27
2018-01-03T13:08:06.792Z,33.54
2018-01-03T13:09:06.740Z,35.35
2018-01-03T13:10:06.692Z,37.92
2018-01-03T13:11:06.658Z,38.20
2018-01-03T13:12:06.618Z,42.19
2018-01-03T13:13:06.582Z,45.42
2018-01-03T13:14:06.537Z,45.42
2018-01-03T13:15:06.508Z,43.52